createdAt,value
2023-02-26T00:00:32.899Z,96045.09
2023-02-26T00:02:59.586Z,96057.66
2023-02-26T00:05:26.253Z,96050.81
2023-02-26T00:07:53.516Z,96064.31
2023-02-26T00:10:20.176Z,96079.88
2023-02-26T00:12:47.968Z,96016.63
2023-02-26T00:15:17.728Z,96064.44
2023-02-26T00:17:56.960Z,96072.97
2023-02-26T00:20:26.052Z,96084.06
2023-02-26T00:22:53.032Z,96110.00
2023-02-26T00:25:20.635Z,96082.03
2023-02-26T00:27:47.558Z,96075.97
2023-02-26T00:30:14.431Z,96097.91
2023-02-26T00:32:41.948Z,96103.78
2023-02-26T00:35:13.948Z,96114.69
2023-02-26T00:38:00.650Z,96117.19
2023-02-26T00:40:45.420Z,96128.28
2023-02-26T00:43:24.599Z,96119.84
2023-02-26T00:46:15.802Z,96136.00
2023-02-26T00:48:55.018Z,96136.81
2023-02-26T00:51:48.152Z,96150.53
2023-02-26T00:54:19.053Z,96079.34
2023-02-26T00:56:45.733Z,96145.44
2023-02-26T00:59:12.336Z,96154.50
2023-02-26T01:01:38.965Z,96139.50
2023-02-26T01:04:06.182Z,96139.00
2023-02-26T01:06:35.009Z,96160.84
2023-02-26T01:09:25.900Z,96170.69
2023-02-26T01:11:57.356Z,96167.69
2023-02-26T01:14:25.164Z,96166.91
2023-02-26T01:17:02.620Z,96148.03
2023-02-26T01:19:41.570Z,96174.06
2023-02-26T01:22:18.479Z,96165.31
2023-02-26T01:24:48.513Z,96160.53
2023-02-26T01:27:15.297Z,96170.97
2023-02-26T01:29:42.175Z,96171.47
2023-02-26T01:32:19.127Z,96165.59
2023-02-26T01:35:02.458Z,96159.53
2023-02-26T01:37:41.607Z,96167.91
2023-02-26T01:40:38.863Z,96167.09
2023-02-26T01:43:16.264Z,96155.97
2023-02-26T01:46:06.234Z,96158.94
2023-02-26T01:48:50.311Z,96167.88
2023-02-26T01:51:18.145Z,96175.53
2023-02-26T01:53:44.948Z,96180.00
2023-02-26T01:56:19.700Z,96177.13
2023-02-26T01:58:49.674Z,96198.06
2023-02-26T02:01:16.363Z,96139.66
2023-02-26T02:03:43.597Z,96180.78
2023-02-26T02:06:19.843Z,96187.34
2023-02-26T02:08:47.050Z,96208.38
2023-02-26T02:11:15.107Z,96199.44
2023-02-26T02:14:02.957Z,96203.22
2023-02-26T02:16:44.508Z,96202.50
2023-02-26T02:19:48.848Z,96211.41
2023-02-26T02:22:39.596Z,96222.66
2023-02-26T02:25:43.480Z,96229.59
2023-02-26T02:28:31.690Z,96230.47
2023-02-26T02:31:11.731Z,96231.72
2023-02-26T02:33:49.791Z,96247.44
2023-02-26T02:36:52.334Z,96242.28
2023-02-26T02:39:45.401Z,96241.91
2023-02-26T02:42:28.566Z,96263.75
2023-02-26T02:45:07.454Z,96244.66
2023-02-26T02:47:37.293Z,96243.16
2023-02-26T02:50:14.294Z,96270.88
2023-02-26T02:52:58.068Z,96272.84
2023-02-26T02:55:30.093Z,96277.50
2023-02-26T02:58:21.373Z,96270.53
2023-02-26T03:00:51.613Z,96278.84
2023-02-26T03:03:31.307Z,96249.06
2023-02-26T03:05:58.099Z,96273.50
2023-02-26T03:08:30.212Z,96271.13
2023-02-26T03:10:57.818Z,96283.84
2023-02-26T03:13:25.832Z,96282.03
2023-02-26T03:16:10.562Z,96287.91
2023-02-26T03:19:14.411Z,96283.94
2023-02-26T03:22:25.884Z,96288.84
2023-02-26T03:25:08.303Z,96285.06
2023-02-26T03:27:41.944Z,96293.81
2023-02-26T03:30:09.089Z,96302.91
2023-02-26T03:33:08.233Z,96306.88
2023-02-26T03:35:49.483Z,96307.75
2023-02-26T03:38:25.051Z,96320.59
2023-02-26T03:41:02.161Z,96325.50
2023-02-26T03:44:14.807Z,96327.53
2023-02-26T03:46:46.319Z,96324.97
2023-02-26T03:49:18.255Z,96319.13
2023-02-26T03:51:46.219Z,96310.16
2023-02-26T03:54:25.208Z,96347.38
2023-02-26T03:56:52.212Z,96334.25
2023-02-26T03:59:19.748Z,96344.28
2023-02-26T04:02:03.856Z,96348.28
2023-02-26T04:04:52.838Z,96349.88
2023-02-26T04:07:20.899Z,96357.63
2023-02-26T04:09:49.828Z,96360.38
2023-02-26T04:12:21.608Z,96352.41
2023-02-26T04:14:48.243Z,96357.78
2023-02-26T04:17:14.803Z,96365.84
2023-02-26T04:19:41.476Z,96369.41
2023-02-26T04:22:08.198Z,96365.47
2023-02-26T04:24:34.888Z,96366.00
2023-02-26T04:27:01.498Z,96378.88
2023-02-26T04:29:28.143Z,96377.84
2023-02-26T04:31:54.929Z,96374.22
2023-02-26T04:34:21.620Z,96360.88
2023-02-26T04:36:48.181Z,96375.72
2023-02-26T04:39:14.987Z,96392.97
2023-02-26T04:41:41.547Z,96391.94
2023-02-26T04:44:09.210Z,96402.16
2023-02-26T04:46:35.917Z,96410.94
2023-02-26T04:49:02.707Z,96406.94
2023-02-26T04:51:30.336Z,96417.88
2023-02-26T04:53:59.988Z,96417.13
2023-02-26T04:56:26.995Z,96412.69
2023-02-26T04:58:53.796Z,96414.34
2023-02-26T05:01:20.401Z,96401.66
2023-02-26T05:03:47.011Z,96411.22
2023-02-26T05:06:13.683Z,96440.47
2023-02-26T05:08:43.026Z,96439.97
2023-02-26T05:11:11.048Z,96444.31
2023-02-26T05:13:38.345Z,96420.44
2023-02-26T05:16:06.326Z,96410.13
2023-02-26T05:18:33.043Z,96422.03
2023-02-26T05:21:00.133Z,96422.38
2023-02-26T05:23:27.318Z,96458.06
2023-02-26T05:25:58.137Z,96443.13
2023-02-26T05:28:28.512Z,96474.09
2023-02-26T05:30:57.673Z,96474.09
2023-02-26T05:33:24.412Z,96463.69
2023-02-26T05:35:51.104Z,96471.63
2023-02-26T05:38:17.785Z,96478.28
2023-02-26T05:40:44.499Z,96497.22
2023-02-26T05:43:11.156Z,96503.94
2023-02-26T05:45:37.985Z,96491.72
2023-02-26T05:48:04.625Z,96510.41
2023-02-26T05:50:31.372Z,96504.31
2023-02-26T05:52:58.075Z,96523.03
2023-02-26T05:55:24.925Z,96503.59
2023-02-26T05:57:51.579Z,96538.34
2023-02-26T06:00:18.869Z,96528.75
2023-02-26T06:02:45.513Z,96524.22
2023-02-26T06:05:12.192Z,96554.03
2023-02-26T06:07:38.773Z,96539.84
2023-02-26T06:10:08.668Z,96550.50
2023-02-26T06:12:35.966Z,96551.63
2023-02-26T06:15:02.877Z,96561.81
2023-02-26T06:17:30.710Z,96571.19
2023-02-26T06:19:57.284Z,96566.91
2023-02-26T06:22:23.937Z,96568.72
2023-02-26T06:24:50.592Z,96577.81
2023-02-26T06:27:17.424Z,96572.72
2023-02-26T06:29:44.152Z,96583.91
2023-02-26T06:32:10.975Z,96588.69
2023-02-26T06:34:37.632Z,96573.34
2023-02-26T06:37:04.586Z,96595.50
2023-02-26T06:39:31.439Z,96594.19
2023-02-26T06:41:58.658Z,96603.84
2023-02-26T06:44:25.464Z,96600.94
2023-02-26T06:46:52.155Z,96609.66
2023-02-26T06:49:19.041Z,96608.31
2023-02-26T06:51:45.682Z,96602.13
2023-02-26T06:54:12.253Z,96617.28
2023-02-26T06:56:38.954Z,96587.75
2023-02-26T06:59:05.541Z,96597.88
2023-02-26T07:01:32.277Z,96627.69
2023-02-26T07:03:58.995Z,96635.69
2023-02-26T07:06:28.075Z,96642.63
2023-02-26T07:09:00.892Z,96635.69
2023-02-26T07:11:27.616Z,96643.31
2023-02-26T07:13:55.203Z,96626.13
2023-02-26T07:16:22.076Z,96647.44
2023-02-26T07:18:49.783Z,96642.59
2023-02-26T07:21:16.406Z,96643.13
2023-02-26T07:23:43.100Z,96640.28
2023-02-26T07:26:09.736Z,96637.78
2023-02-26T07:28:36.486Z,96631.63
2023-02-26T07:31:03.297Z,96646.16
2023-02-26T07:33:31.978Z,96658.50
2023-02-26T07:35:58.589Z,96667.22
2023-02-26T07:38:25.287Z,96651.22
2023-02-26T07:40:55.014Z,96655.41
2023-02-26T07:43:21.786Z,96636.44
2023-02-26T07:45:51.207Z,96667.72
2023-02-26T07:48:18.090Z,96668.94
2023-02-26T07:50:45.007Z,96661.38
2023-02-26T07:53:11.622Z,96676.41
2023-02-26T07:55:39.340Z,96682.19
2023-02-26T07:58:06.012Z,96689.41
2023-02-26T08:00:33.209Z,96687.25
2023-02-26T08:02:59.904Z,96684.66
2023-02-26T08:05:29.622Z,96696.31
2023-02-26T08:07:56.672Z,96697.34
2023-02-26T08:10:24.336Z,96671.66
2023-02-26T08:12:50.981Z,96700.34
2023-02-26T08:15:17.700Z,96710.69
2023-02-26T08:17:45.033Z,96706.56
2023-02-26T08:20:12.479Z,96700.31
2023-02-26T08:22:39.197Z,96685.78
2023-02-26T08:25:06.280Z,96708.41
2023-02-26T08:27:33.068Z,96710.47
2023-02-26T08:29:59.973Z,96692.25
2023-02-26T08:32:28.349Z,96700.53
2023-02-26T08:34:55.767Z,96699.38
2023-02-26T08:37:25.208Z,96723.03
2023-02-26T08:39:54.035Z,96703.75
2023-02-26T08:42:20.749Z,96720.31
2023-02-26T08:44:48.010Z,96716.31
2023-02-26T08:47:17.135Z,96724.22
2023-02-26T08:49:51.275Z,96728.91
2023-02-26T08:52:17.851Z,96725.53
2023-02-26T08:54:44.537Z,96746.34
2023-02-26T08:57:11.306Z,96734.75
2023-02-26T08:59:38.133Z,96759.91
2023-02-26T09:02:04.875Z,96764.00
2023-02-26T09:04:31.548Z,96772.91
2023-02-26T09:06:58.261Z,96781.16
2023-02-26T09:09:24.885Z,96775.06
2023-02-26T09:11:51.439Z,96784.94
2023-02-26T09:14:18.019Z,96786.06
2023-02-26T09:16:44.762Z,96788.25
2023-02-26T09:19:11.501Z,96787.81
2023-02-26T09:21:38.394Z,96785.75
2023-02-26T09:24:07.406Z,96796.81
2023-02-26T09:26:34.054Z,96795.81
2023-02-26T09:29:00.718Z,96795.69
2023-02-26T09:31:28.291Z,96799.28
2023-02-26T09:33:54.965Z,96814.13
2023-02-26T09:36:21.619Z,96812.44
2023-02-26T09:38:48.362Z,96811.09
2023-02-26T09:41:27.986Z,96825.88
2023-02-26T09:44:00.572Z,96823.91
2023-02-26T09:46:47.174Z,96831.91
2023-02-26T09:49:48.034Z,96840.25
2023-02-26T09:52:23.670Z,96856.00
2023-02-26T09:54:54.024Z,96832.94
2023-02-26T09:57:28.123Z,96863.22
2023-02-26T09:59:55.250Z,96873.13
2023-02-26T10:02:29.942Z,96873.22
2023-02-26T10:05:16.101Z,96867.41
2023-02-26T10:07:57.043Z,96875.81
2023-02-26T10:10:42.292Z,96867.00
2023-02-26T10:13:25.728Z,96874.13
2023-02-26T10:15:57.610Z,96879.31
2023-02-26T10:18:30.581Z,96884.88
2023-02-26T10:21:20.355Z,96887.66
2023-02-26T10:23:56.293Z,96872.59
2023-02-26T10:26:27.491Z,96887.47
2023-02-26T10:29:34.590Z,96896.72
2023-02-26T10:32:29.904Z,96894.03
2023-02-26T10:35:26.281Z,96884.69
2023-02-26T10:38:05.108Z,96867.59
2023-02-26T10:40:44.216Z,96873.13
2023-02-26T10:43:27.525Z,96894.50
2023-02-26T10:46:06.430Z,96898.91
2023-02-26T10:48:59.677Z,96908.44
2023-02-26T10:51:38.027Z,96902.59
2023-02-26T10:54:36.067Z,96908.97
2023-02-26T10:57:04.216Z,96901.44
2023-02-26T10:59:33.658Z,96908.00
2023-02-26T11:02:00.752Z,96913.88
2023-02-26T11:04:27.595Z,96919.25
2023-02-26T11:06:58.971Z,96932.13
2023-02-26T11:09:27.520Z,96924.28
2023-02-26T11:12:05.399Z,96931.72
2023-02-26T11:14:33.899Z,96937.16
2023-02-26T11:17:28.075Z,96930.88
2023-02-26T11:20:35.064Z,96945.63
2023-02-26T11:23:04.209Z,96962.09
2023-02-26T11:25:35.013Z,96962.28
2023-02-26T11:28:07.642Z,96955.31
2023-02-26T11:30:38.827Z,96938.41
2023-02-26T11:33:27.219Z,96909.66
2023-02-26T11:35:59.719Z,96953.91
2023-02-26T11:38:28.692Z,96944.00
2023-02-26T11:40:58.489Z,96957.88
2023-02-26T11:43:48.058Z,96973.03
2023-02-26T11:46:15.625Z,96965.09
2023-02-26T11:48:53.559Z,96959.31
2023-02-26T11:51:25.148Z,96988.72
2023-02-26T11:53:54.572Z,96998.63
2023-02-26T11:56:36.854Z,97005.13
2023-02-26T11:59:17.668Z,97000.50
2023-02-26T12:01:44.312Z,97004.16
2023-02-26T12:04:18.687Z,96995.59
2023-02-26T12:06:49.224Z,97013.94
2023-02-26T12:09:15.921Z,97013.47
2023-02-26T12:12:03.951Z,97031.41
2023-02-26T12:14:48.974Z,97031.09
2023-02-26T12:17:43.251Z,97025.44
2023-02-26T12:20:38.399Z,97038.91
2023-02-26T12:23:07.929Z,97046.97
2023-02-26T12:25:46.715Z,97053.25
2023-02-26T12:28:34.455Z,97058.13
2023-02-26T12:31:32.504Z,97061.41
2023-02-26T12:34:20.331Z,97067.31
2023-02-26T12:37:16.821Z,97032.06
2023-02-26T12:40:06.600Z,97072.72
2023-02-26T12:42:51.847Z,97071.66
2023-02-26T12:46:03.091Z,97067.91
2023-02-26T12:48:42.684Z,97080.50
2023-02-26T12:51:18.582Z,97073.75
2023-02-26T12:54:26.551Z,97086.59
2023-02-26T12:57:18.107Z,97088.22
2023-02-26T13:00:22.802Z,97087.16
2023-02-26T13:03:01.445Z,97088.47
2023-02-26T13:06:02.331Z,97096.25
2023-02-26T13:08:33.604Z,97093.56
2023-02-26T13:11:18.982Z,97092.47
2023-02-26T13:14:07.196Z,97088.19
2023-02-26T13:16:39.415Z,97093.53
2023-02-26T13:19:36.597Z,97093.56
2023-02-26T13:22:15.926Z,97096.50
2023-02-26T13:24:52.826Z,97091.97
2023-02-26T13:27:23.133Z,97097.31
2023-02-26T13:30:03.122Z,97096.25
2023-02-26T13:32:34.626Z,97110.47
2023-02-26T13:35:16.955Z,97116.06
2023-02-26T13:37:49.974Z,97126.47
2023-02-26T13:40:51.977Z,97132.63
2023-02-26T13:43:50.664Z,97143.88
2023-02-26T13:46:51.104Z,97146.59
2023-02-26T13:49:49.183Z,97129.75
2023-02-26T13:52:28.301Z,97144.75
2023-02-26T13:54:56.478Z,97144.22
2023-02-26T13:57:37.717Z,97164.84
2023-02-26T14:00:33.084Z,97134.81
2023-02-26T14:03:26.884Z,97166.69
2023-02-26T14:06:06.447Z,97141.81
2023-02-26T14:08:47.663Z,97176.63
2023-02-26T14:11:17.206Z,97192.69
2023-02-26T14:14:10.901Z,97188.66
2023-02-26T14:16:40.857Z,97181.72
2023-02-26T14:19:13.744Z,97192.94
2023-02-26T14:21:58.962Z,97184.91
2023-02-26T14:24:36.648Z,97203.38
2023-02-26T14:27:12.403Z,97201.22
2023-02-26T14:29:43.031Z,97202.03
2023-02-26T14:32:33.824Z,97214.38
2023-02-26T14:35:06.637Z,97206.34
2023-02-26T14:37:37.362Z,97213.00
2023-02-26T14:40:16.284Z,97215.69
2023-02-26T14:42:57.472Z,97215.44
2023-02-26T14:45:35.253Z,97196.16
2023-02-26T14:48:05.919Z,97209.03
2023-02-26T14:50:51.370Z,97220.81
2023-02-26T14:53:24.275Z,97214.63
2023-02-26T14:56:07.849Z,97200.97
2023-02-26T14:58:59.772Z,97206.03
2023-02-26T15:01:26.657Z,97216.19
2023-02-26T15:04:05.280Z,97209.78
2023-02-26T15:06:58.764Z,97220.50
2023-02-26T15:09:57.625Z,97239.25
2023-02-26T15:12:42.203Z,97234.94
2023-02-26T15:15:34.281Z,97239.22
2023-02-26T15:18:10.130Z,97250.22
2023-02-26T15:20:57.817Z,97252.88
2023-02-26T15:23:44.308Z,97258.22
2023-02-26T15:26:19.209Z,97245.06
2023-02-26T15:28:46.022Z,97254.72
2023-02-26T15:31:13.906Z,97270.25
2023-02-26T15:33:40.947Z,97262.97
2023-02-26T15:36:13.316Z,97271.84
2023-02-26T15:38:48.383Z,97276.13
2023-02-26T15:41:17.156Z,97266.47
2023-02-26T15:43:50.051Z,97273.19
2023-02-26T15:46:18.076Z,97289.00
2023-02-26T15:48:45.163Z,97288.91
2023-02-26T15:51:15.054Z,97301.19
2023-02-26T15:53:53.480Z,97289.41
2023-02-26T15:56:25.337Z,97302.81
2023-02-26T15:58:59.899Z,97264.78
2023-02-26T16:01:28.472Z,97305.28
2023-02-26T16:04:01.215Z,97261.56
2023-02-26T16:06:35.004Z,97309.47
2023-02-26T16:09:02.908Z,97304.88
2023-02-26T16:11:42.368Z,97303.81
2023-02-26T16:14:24.635Z,97318.06
2023-02-26T16:16:54.411Z,97320.47
2023-02-26T16:19:38.007Z,97326.34
2023-02-26T16:22:12.873Z,97336.25
2023-02-26T16:24:39.557Z,97325.44
2023-02-26T16:27:13.789Z,97350.94
2023-02-26T16:29:50.948Z,97372.84
2023-02-26T16:32:18.342Z,97366.16
2023-02-26T16:35:00.243Z,97369.06
2023-02-26T16:37:26.883Z,97376.38
2023-02-26T16:40:11.703Z,97373.75
2023-02-26T16:42:50.511Z,97381.81
2023-02-26T16:45:35.200Z,97377.81
2023-02-26T16:48:06.080Z,97376.47
2023-02-26T16:50:34.722Z,97373.84
2023-02-26T16:53:09.784Z,97384.53
2023-02-26T16:55:39.622Z,97379.19
2023-02-26T16:58:14.050Z,97356.63
2023-02-26T17:00:50.694Z,97382.16
2023-02-26T17:03:23.581Z,97374.84
2023-02-26T17:06:08.540Z,97387.66
2023-02-26T17:08:42.798Z,97382.00
2023-02-26T17:11:20.413Z,97391.16
2023-02-26T17:14:03.207Z,97386.56
2023-02-26T17:16:30.011Z,97402.22
2023-02-26T17:18:58.925Z,97404.09
2023-02-26T17:21:26.071Z,97396.03
2023-02-26T17:23:53.034Z,97397.09
2023-02-26T17:26:19.717Z,97393.78
2023-02-26T17:28:46.511Z,97411.75
2023-02-26T17:31:13.510Z,97420.34
2023-02-26T17:33:42.464Z,97420.94
2023-02-26T17:36:17.967Z,97416.34
2023-02-26T17:38:47.297Z,97434.00
2023-02-26T17:41:18.687Z,97427.88
2023-02-26T17:43:45.498Z,97411.75
2023-02-26T17:46:13.292Z,97426.53
2023-02-26T17:48:40.142Z,97433.00
2023-02-26T17:51:07.779Z,97430.81
2023-02-26T17:53:42.061Z,97426.28
2023-02-26T17:56:30.040Z,97429.44
2023-02-26T17:58:58.065Z,97443.53
2023-02-26T18:01:28.632Z,97444.06
2023-02-26T18:03:56.968Z,97434.75
2023-02-26T18:06:25.403Z,97399.31
2023-02-26T18:08:52.537Z,97441.22
2023-02-26T18:11:20.592Z,97413.53
2023-02-26T18:13:47.396Z,97440.97
2023-02-26T18:16:22.121Z,97442.09
2023-02-26T18:18:49.083Z,97430.88
2023-02-26T18:21:15.810Z,97436.22
2023-02-26T18:23:43.075Z,97447.22
2023-02-26T18:26:10.542Z,97441.31
2023-02-26T18:28:37.340Z,97446.41
2023-02-26T18:31:08.831Z,97461.38
2023-02-26T18:33:38.721Z,97478.22
2023-02-26T18:36:06.180Z,97480.66
2023-02-26T18:38:33.575Z,97489.56
2023-02-26T18:41:02.364Z,97479.88
2023-02-26T18:43:29.808Z,97493.84
2023-02-26T18:46:01.447Z,97464.81
2023-02-26T18:48:29.158Z,97493.03
2023-02-26T18:50:56.778Z,97498.97
2023-02-26T18:53:23.950Z,97505.41
2023-02-26T18:55:52.882Z,97511.31
2023-02-26T18:58:21.301Z,97509.69
2023-02-26T19:00:47.849Z,97480.66
2023-02-26T19:03:14.615Z,97436.03
2023-02-26T19:05:41.199Z,97505.66
2023-02-26T19:08:08.157Z,97499.75
2023-02-26T19:10:35.093Z,97488.69
2023-02-26T19:13:02.287Z,97513.44
2023-02-26T19:15:29.126Z,97507.50
2023-02-26T19:17:55.922Z,97511.28
2023-02-26T19:20:22.523Z,97523.88
2023-02-26T19:22:49.531Z,97505.84
2023-02-26T19:25:24.501Z,97505.59
2023-02-26T19:27:53.679Z,97532.72
2023-02-26T19:30:21.714Z,97526.78
2023-02-26T19:32:48.821Z,97497.81
2023-02-26T19:35:16.083Z,97554.72
2023-02-26T19:37:43.324Z,97543.44
2023-02-26T19:40:15.312Z,97532.69
2023-02-26T19:42:42.993Z,97534.81
2023-02-26T19:45:10.589Z,97553.34
2023-02-26T19:47:37.649Z,97534.22
2023-02-26T19:50:05.027Z,97553.59
2023-02-26T19:52:31.919Z,97536.88
2023-02-26T19:54:58.653Z,97556.78
2023-02-26T19:57:26.620Z,97564.31
2023-02-26T19:59:53.824Z,97551.66
2023-02-26T20:02:20.758Z,97537.16
2023-02-26T20:04:47.589Z,97558.91
2023-02-26T20:07:14.288Z,97558.13
2023-02-26T20:09:41.120Z,97566.66
2023-02-26T20:12:08.045Z,97558.88
2023-02-26T20:14:34.921Z,97575.47
2023-02-26T20:17:02.257Z,97566.91
2023-02-26T20:19:28.916Z,97556.97
2023-02-26T20:21:56.204Z,97585.97
2023-02-26T20:24:22.845Z,97558.00
2023-02-26T20:26:49.656Z,97588.38
2023-02-26T20:29:18.672Z,97569.00
2023-02-26T20:31:49.576Z,97588.63
2023-02-26T20:34:20.341Z,97570.06
2023-02-26T20:36:48.471Z,97563.34
2023-02-26T20:39:15.120Z,97592.09
2023-02-26T20:41:42.185Z,97599.03
2023-02-26T20:44:09.815Z,97572.59
2023-02-26T20:46:39.261Z,97603.53
2023-02-26T20:49:11.505Z,97611.06
2023-02-26T20:51:42.443Z,97589.03
2023-02-26T20:54:10.667Z,97601.13
2023-02-26T20:56:37.367Z,97612.66
2023-02-26T20:59:04.267Z,97612.41
2023-02-26T21:01:35.807Z,97607.25
2023-02-26T21:04:07.824Z,97601.34
2023-02-26T21:06:35.182Z,97612.66
2023-02-26T21:09:02.463Z,97601.41
2023-02-26T21:11:32.547Z,97600.00
2023-02-26T21:14:00.678Z,97612.31
2023-02-26T21:16:28.603Z,97595.06
2023-02-26T21:18:56.203Z,97604.72
2023-02-26T21:21:23.288Z,97623.25
2023-02-26T21:23:51.331Z,97620.00
2023-02-26T21:26:17.954Z,97614.81
2023-02-26T21:28:48.830Z,97621.84
2023-02-26T21:31:17.023Z,97627.53
2023-02-26T21:33:44.409Z,97604.72
2023-02-26T21:36:13.707Z,97625.66
2023-02-26T21:38:40.793Z,97627.78
2023-02-26T21:41:07.453Z,97635.81
2023-02-26T21:43:34.148Z,97621.53
2023-02-26T21:46:00.796Z,97632.59
2023-02-26T21:48:27.339Z,97618.59
2023-02-26T21:50:56.356Z,97625.00
2023-02-26T21:53:23.298Z,97615.44
2023-02-26T21:55:50.000Z,97618.34
2023-02-26T21:58:16.720Z,97618.88
2023-02-26T22:00:43.793Z,97629.00
2023-02-26T22:03:11.495Z,97636.69
2023-02-26T22:05:38.378Z,97627.81
2023-02-26T22:08:05.243Z,97634.50
2023-02-26T22:10:32.292Z,97612.44
2023-02-26T22:12:58.948Z,97636.03
2023-02-26T22:15:25.620Z,97644.66
2023-02-26T22:17:55.664Z,97639.75
2023-02-26T22:20:22.229Z,97658.03
2023-02-26T22:22:48.968Z,97656.47
2023-02-26T22:25:15.589Z,97664.00
2023-02-26T22:27:42.274Z,97601.53
2023-02-26T22:30:09.933Z,97623.84
2023-02-26T22:32:36.725Z,97630.63
2023-02-26T22:35:03.916Z,97671.84
2023-02-26T22:37:30.607Z,97645.16
2023-02-26T22:39:57.268Z,97633.00
2023-02-26T22:42:24.359Z,97654.75
2023-02-26T22:44:51.010Z,97675.31
2023-02-26T22:47:17.603Z,97649.50
2023-02-26T22:49:45.199Z,97668.88
2023-02-26T22:52:12.007Z,97666.47
2023-02-26T22:54:39.075Z,97642.19
2023-02-26T22:57:06.361Z,97651.53
2023-02-26T22:59:32.938Z,97686.00
2023-02-26T23:01:59.626Z,97648.59
2023-02-26T23:04:26.544Z,97690.66
2023-02-26T23:06:53.251Z,97657.47
2023-02-26T23:09:19.905Z,97666.25
2023-02-26T23:11:46.519Z,97641.63
2023-02-26T23:14:15.542Z,97631.56
2023-02-26T23:16:42.460Z,97693.88
2023-02-26T23:19:10.320Z,97658.81
2023-02-26T23:21:37.059Z,97718.63
2023-02-26T23:24:04.936Z,97712.97
2023-02-26T23:26:41.648Z,97706.81
2023-02-26T23:29:08.630Z,97708.16
2023-02-26T23:31:35.443Z,97716.38
2023-02-26T23:34:04.749Z,97692.06
2023-02-26T23:36:31.363Z,97716.66
2023-02-26T23:38:58.001Z,97715.56
2023-02-26T23:41:24.883Z,97714.69
2023-02-26T23:43:51.711Z,97729.69
2023-02-26T23:46:18.567Z,97725.38
2023-02-26T23:48:46.214Z,97720.75
2023-02-26T23:51:12.814Z,97724.81
2023-02-26T23:53:39.375Z,97695.00
2023-02-26T23:56:06.464Z,97684.50
2023-02-26T23:58:34.133Z,97711.66
